createdAt,value
2022-11-25T00:01:34.290Z,32.42
2022-11-25T00:04:02.970Z,34.85
2022-11-25T00:06:34.081Z,33.80
2022-11-25T00:09:12.876Z,33.30
2022-11-25T00:11:43.139Z,34.53
2022-11-25T00:14:14.909Z,34.15
2022-11-25T00:16:48.169Z,33.05
2022-11-25T00:19:17.507Z,30.75
2022-11-25T00:21:45.748Z,31.63
2022-11-25T00:24:16.202Z,33.13
2022-11-25T00:26:44.562Z,32.88
2022-11-25T00:29:14.438Z,32.00
2022-11-25T00:31:43.640Z,31.50
2022-11-25T00:34:14.475Z,31.05
2022-11-25T00:36:42.767Z,31.52
2022-11-25T00:39:13.826Z,28.98
2022-11-25T00:42:01.685Z,28.17
2022-11-25T00:44:36.468Z,27.42
2022-11-25T00:47:32.012Z,27.63
2022-11-25T00:50:00.222Z,28.05
2022-11-25T00:52:28.834Z,26.58
2022-11-25T00:54:57.136Z,27.38
2022-11-25T00:57:25.368Z,26.25
2022-11-25T00:59:54.485Z,25.40
2022-11-25T01:02:23.276Z,25.58
2022-11-25T01:04:51.653Z,26.92
2022-11-25T01:07:20.145Z,25.33
2022-11-25T01:09:49.394Z,25.17
2022-11-25T01:12:17.761Z,25.70
2022-11-25T01:14:46.049Z,26.10
2022-11-25T01:17:15.926Z,28.58
2022-11-25T01:19:44.195Z,29.02
2022-11-25T01:22:12.286Z,27.90
2022-11-25T01:24:44.144Z,30.45
2022-11-25T01:27:12.341Z,31.70
2022-11-25T01:29:41.716Z,32.85
2022-11-25T01:32:10.055Z,31.42
2022-11-25T01:34:40.227Z,32.08
2022-11-25T01:37:08.446Z,31.80
2022-11-25T01:39:36.623Z,34.17
2022-11-25T01:42:04.956Z,33.03
2022-11-25T01:44:36.373Z,30.95
2022-11-25T01:47:16.200Z,32.92
2022-11-25T01:49:53.374Z,30.27
2022-11-25T01:52:37.947Z,31.02
2022-11-25T01:55:14.270Z,30.40
2022-11-25T01:58:04.451Z,32.70
2022-11-25T02:00:33.077Z,34.15
2022-11-25T02:03:01.650Z,33.78
2022-11-25T02:06:00.517Z,32.28
2022-11-25T02:08:32.964Z,33.55
2022-11-25T02:11:04.746Z,31.50
2022-11-25T02:13:33.768Z,31.63
2022-11-25T02:16:02.079Z,30.92
2022-11-25T02:18:30.452Z,30.25
2022-11-25T02:20:58.824Z,29.33
2022-11-25T02:24:07.882Z,29.92
2022-11-25T02:26:36.199Z,32.75
2022-11-25T02:29:04.688Z,31.88
2022-11-25T02:31:32.917Z,30.13
2022-11-25T02:34:01.652Z,29.35
2022-11-25T02:36:29.913Z,29.33
2022-11-25T02:39:03.310Z,28.23
2022-11-25T02:41:45.214Z,29.48
2022-11-25T02:44:14.756Z,30.02
2022-11-25T02:46:43.903Z,28.08
2022-11-25T02:49:12.152Z,28.95
2022-11-25T02:51:45.205Z,29.35
2022-11-25T02:54:15.779Z,28.05
2022-11-25T02:56:44.525Z,28.35
2022-11-25T02:59:12.936Z,27.95
2022-11-25T03:01:41.417Z,27.55
2022-11-25T03:04:11.521Z,26.70
2022-11-25T03:06:39.890Z,26.38
2022-11-25T03:09:08.728Z,25.95
2022-11-25T03:11:58.217Z,27.35
2022-11-25T03:14:26.499Z,28.23
2022-11-25T03:16:54.799Z,27.55
2022-11-25T03:19:22.982Z,27.52
2022-11-25T03:21:53.552Z,25.48
2022-11-25T03:24:21.853Z,27.38
2022-11-25T03:26:51.150Z,27.35
2022-11-25T03:29:19.947Z,26.13
2022-11-25T03:31:48.570Z,27.60
2022-11-25T03:34:16.947Z,28.23
2022-11-25T03:36:45.455Z,27.25
2022-11-25T03:39:13.852Z,28.17
2022-11-25T03:41:43.222Z,25.17
2022-11-25T03:44:11.407Z,27.10
2022-11-25T03:46:39.725Z,27.85
2022-11-25T03:49:08.832Z,25.77
2022-11-25T03:51:37.523Z,27.35
2022-11-25T03:54:06.432Z,27.67
2022-11-25T03:56:54.592Z,27.35
2022-11-25T03:59:23.154Z,27.15
2022-11-25T04:01:52.465Z,27.98
2022-11-25T04:04:20.735Z,25.92
2022-11-25T04:06:49.118Z,25.55
2022-11-25T04:09:17.317Z,28.05
2022-11-25T04:12:04.197Z,26.10
2022-11-25T04:14:43.364Z,27.20
2022-11-25T04:17:11.874Z,28.17
2022-11-25T04:19:40.381Z,27.48
2022-11-25T04:22:09.204Z,25.90
2022-11-25T04:24:40.489Z,24.98
2022-11-25T04:27:09.561Z,27.10
2022-11-25T04:29:39.215Z,26.98
2022-11-25T04:32:07.593Z,28.77
2022-11-25T04:34:36.284Z,29.08
2022-11-25T04:37:04.764Z,25.33
2022-11-25T04:39:33.170Z,25.58
2022-11-25T04:42:27.422Z,28.38
2022-11-25T04:45:20.991Z,27.33
2022-11-25T04:47:48.284Z,27.83
2022-11-25T04:50:19.863Z,27.80
2022-11-25T04:53:00.698Z,27.20
2022-11-25T04:55:32.308Z,26.10
2022-11-25T04:58:02.789Z,26.30
2022-11-25T05:00:33.339Z,24.50
2022-11-25T05:03:02.663Z,27.70
2022-11-25T05:05:32.805Z,26.30
2022-11-25T05:08:00.930Z,26.25
2022-11-25T05:10:29.557Z,25.77
2022-11-25T05:12:58.882Z,25.52
2022-11-25T05:15:27.118Z,26.83
2022-11-25T05:17:56.469Z,27.05
2022-11-25T05:20:40.754Z,24.85
2022-11-25T05:23:09.423Z,25.92
2022-11-25T05:25:38.690Z,27.38
2022-11-25T05:28:34.662Z,26.63
2022-11-25T05:31:03.042Z,26.55
2022-11-25T05:33:34.875Z,25.42
2022-11-25T05:36:05.976Z,26.80
2022-11-25T05:38:42.178Z,25.95
2022-11-25T05:41:13.377Z,28.33
2022-11-25T05:43:44.011Z,27.65
2022-11-25T05:46:13.457Z,27.73
2022-11-25T05:48:52.536Z,28.15
2022-11-25T05:51:22.228Z,27.83
2022-11-25T05:53:52.832Z,28.27
2022-11-25T05:56:24.217Z,27.98
2022-11-25T05:59:18.541Z,27.60
2022-11-25T06:02:01.050Z,26.10
2022-11-25T06:04:29.258Z,25.20
2022-11-25T06:06:57.458Z,25.30
2022-11-25T06:09:25.867Z,26.35
2022-11-25T06:11:54.249Z,27.48
2022-11-25T06:14:22.678Z,27.13
2022-11-25T06:16:52.377Z,27.83
2022-11-25T06:21:53.541Z,29.30
2022-11-25T06:24:21.781Z,30.17
2022-11-25T06:26:56.196Z,28.05
2022-11-25T06:29:24.589Z,30.05
2022-11-25T06:31:53.494Z,28.23
2022-11-25T06:34:42.781Z,28.30
2022-11-25T06:37:40.694Z,28.83
2022-11-25T06:40:09.684Z,28.90
2022-11-25T06:42:44.384Z,28.95
2022-11-25T06:45:12.678Z,26.60
2022-11-25T06:47:41.019Z,29.77
2022-11-25T06:50:09.811Z,28.88
2022-11-25T06:52:38.924Z,29.67
2022-11-25T06:55:07.788Z,30.08
2022-11-25T06:57:39.402Z,27.80
2022-11-25T07:00:09.292Z,27.98
2022-11-25T07:02:42.827Z,25.90
2022-11-25T07:05:13.751Z,28.70
2022-11-25T07:07:42.047Z,26.67
2022-11-25T07:10:10.665Z,26.30
2022-11-25T07:12:38.882Z,26.30
2022-11-25T07:15:07.489Z,25.38
2022-11-25T07:17:35.697Z,24.65
2022-11-25T07:20:04.375Z,26.42
2022-11-25T07:22:32.659Z,25.25
2022-11-25T07:25:00.842Z,28.63
2022-11-25T07:27:29.012Z,28.45
2022-11-25T07:30:41.606Z,24.73
2022-11-25T07:32:45.342Z,23.02
2022-11-25T07:35:13.563Z,19.98
2022-11-25T07:37:41.731Z,21.13
2022-11-25T07:40:10.371Z,21.98
2022-11-25T07:42:41.531Z,20.25
2022-11-25T07:45:11.205Z,19.17
2022-11-25T07:47:45.610Z,20.08
2022-11-25T07:50:13.852Z,19.10
2022-11-25T07:52:42.087Z,18.17
2022-11-25T07:55:10.455Z,19.75
2022-11-25T07:57:38.628Z,22.98
2022-11-25T08:00:07.653Z,23.80
2022-11-25T08:02:40.113Z,25.85
2022-11-25T08:05:08.740Z,29.17
2022-11-25T08:07:37.156Z,29.45
2022-11-25T08:10:05.944Z,27.65
2022-11-25T08:12:34.875Z,27.92
2022-11-25T08:15:03.283Z,27.65
2022-11-25T08:17:31.751Z,26.33
2022-11-25T08:20:00.110Z,28.45
2022-11-25T08:22:29.094Z,26.67
2022-11-25T08:24:57.291Z,29.23
2022-11-25T08:27:25.486Z,29.15
2022-11-25T08:29:53.749Z,27.70
2022-11-25T08:32:22.261Z,27.75
2022-11-25T08:34:50.552Z,27.95
2022-11-25T08:37:18.845Z,26.30
2022-11-25T08:39:53.470Z,28.13
2022-11-25T08:42:22.253Z,24.20
2022-11-25T08:44:56.276Z,22.00
2022-11-25T08:47:25.849Z,21.70
2022-11-25T08:49:55.188Z,22.75
2022-11-25T08:52:24.334Z,21.77
2022-11-25T08:54:52.547Z,22.10
2022-11-25T08:57:20.730Z,19.45
2022-11-25T08:59:48.988Z,20.45
2022-11-25T09:02:18.864Z,20.88
2022-11-25T09:04:47.238Z,20.73
2022-11-25T09:07:16.751Z,20.40
2022-11-25T09:09:45.213Z,17.70
2022-11-25T09:12:13.469Z,19.13
2022-11-25T09:14:41.736Z,20.05
2022-11-25T09:17:11.389Z,19.67
2022-11-25T09:19:39.862Z,20.92
2022-11-25T09:22:08.231Z,19.50
2022-11-25T09:24:37.198Z,21.10
2022-11-25T09:27:05.402Z,19.58
2022-11-25T09:29:33.880Z,19.67
2022-11-25T09:32:02.350Z,19.65
2022-11-25T09:34:31.745Z,19.98
2022-11-25T09:36:59.970Z,20.83
2022-11-25T09:39:29.951Z,19.17
2022-11-25T09:42:29.342Z,19.25
2022-11-25T09:45:38.838Z,18.85
2022-11-25T09:48:22.880Z,17.77
2022-11-25T09:51:08.020Z,18.30
2022-11-25T09:53:51.597Z,16.95
2022-11-25T10:01:29.067Z,17.05
2022-11-25T10:04:13.211Z,16.98
2022-11-25T10:06:55.252Z,16.90
2022-11-25T10:09:29.030Z,17.00
2022-11-25T10:14:43.914Z,16.38
2022-11-25T10:17:19.105Z,17.23
2022-11-25T10:19:57.274Z,16.48
2022-11-25T10:22:28.414Z,16.60
2022-11-25T10:25:14.668Z,15.00
2022-11-25T10:27:43.329Z,15.85
2022-11-25T10:30:17.267Z,17.60
2022-11-25T10:33:02.504Z,17.23
2022-11-25T10:35:41.575Z,18.00
2022-11-25T10:38:41.505Z,17.85
2022-11-25T10:41:17.761Z,18.25
2022-11-25T10:43:48.343Z,16.90
2022-11-25T10:47:11.152Z,17.70
2022-11-25T10:50:06.045Z,18.08
2022-11-25T10:52:49.133Z,17.00
2022-11-25T10:55:26.790Z,17.77
2022-11-25T10:57:55.877Z,16.35
2022-11-25T11:00:36.279Z,15.75
2022-11-25T11:03:24.155Z,15.60
2022-11-25T11:05:56.705Z,14.88
2022-11-25T11:08:28.984Z,16.30
2022-11-25T11:11:19.211Z,15.07
2022-11-25T11:13:50.589Z,15.18
2022-11-25T11:16:52.350Z,16.25
2022-11-25T11:19:29.452Z,14.20
2022-11-25T11:22:14.378Z,14.15
2022-11-25T11:24:44.022Z,13.45
2022-11-25T11:27:35.989Z,14.25
2022-11-25T11:30:29.474Z,13.77
2022-11-25T11:33:23.675Z,13.52
2022-11-25T11:36:26.238Z,14.48
2022-11-25T11:39:11.778Z,13.07
2022-11-25T11:41:54.298Z,14.15
2022-11-25T11:45:06.958Z,13.57
2022-11-25T11:47:44.362Z,13.07
2022-11-25T11:50:21.404Z,14.07
2022-11-25T11:53:10.962Z,13.93
2022-11-25T11:56:33.511Z,12.27
2022-11-25T11:58:57.625Z,12.20
2022-11-25T12:01:34.895Z,10.52
2022-11-25T12:04:30.715Z,12.55
2022-11-25T12:07:18.719Z,12.50
2022-11-25T12:10:08.498Z,11.90
2022-11-25T12:12:40.307Z,13.13
2022-11-25T12:15:50.834Z,12.57
2022-11-25T12:18:35.568Z,12.20
2022-11-25T12:21:06.887Z,12.30
2022-11-25T12:23:42.843Z,13.20
2022-11-25T12:26:21.590Z,12.18
2022-11-25T12:29:02.538Z,11.93
2022-11-25T12:31:46.607Z,11.98
2022-11-25T12:34:32.642Z,12.60
2022-11-25T12:37:15.012Z,9.18
2022-11-25T12:39:53.683Z,10.68
2022-11-25T12:42:26.206Z,8.98
2022-11-25T12:45:05.328Z,7.60
2022-11-25T12:47:33.797Z,8.30
2022-11-25T12:50:02.179Z,7.50
2022-11-25T12:53:13.602Z,7.80
2022-11-25T12:55:42.376Z,7.63
2022-11-25T12:58:53.936Z,7.80
2022-11-25T13:01:25.653Z,8.98
2022-11-25T13:04:15.487Z,8.57
2022-11-25T13:07:20.648Z,7.72
2022-11-25T13:10:07.383Z,6.80
2022-11-25T13:12:56.944Z,7.35
2022-11-25T13:15:43.145Z,6.78
2022-11-25T13:18:23.889Z,6.90
2022-11-25T13:20:53.758Z,7.68
2022-11-25T13:23:27.390Z,7.00
2022-11-25T13:26:32.722Z,7.93
2022-11-25T13:29:14.414Z,7.68
2022-11-25T13:32:01.746Z,7.57
2022-11-25T13:34:32.049Z,8.63
2022-11-25T13:37:02.090Z,8.07
2022-11-25T13:39:36.096Z,7.63
2022-11-25T13:42:25.512Z,8.40
2022-11-25T13:44:59.343Z,8.43
2022-11-25T13:47:44.749Z,8.93
2022-11-25T13:50:21.824Z,8.43
2022-11-25T13:53:18.237Z,8.02
2022-11-25T13:55:50.107Z,9.48
2022-11-25T13:58:26.022Z,9.20
2022-11-25T14:01:24.820Z,9.02
2022-11-25T14:04:00.375Z,8.48
2022-11-25T14:06:52.593Z,9.90
2022-11-25T14:09:51.989Z,8.52
2022-11-25T14:12:43.681Z,9.18
2022-11-25T14:15:38.347Z,10.95
2022-11-25T14:18:53.218Z,10.40
2022-11-25T14:21:37.710Z,10.63
2022-11-25T14:24:33.167Z,9.40
2022-11-25T14:27:03.424Z,9.18
2022-11-25T14:29:40.617Z,11.40
2022-11-25T14:32:21.914Z,9.52
2022-11-25T14:34:56.659Z,10.38
2022-11-25T14:37:37.420Z,9.43
2022-11-25T14:40:34.790Z,11.02
2022-11-25T14:43:12.118Z,10.20
2022-11-25T14:45:40.701Z,10.38
2022-11-25T14:48:21.915Z,11.60
2022-11-25T14:51:07.491Z,11.25
2022-11-25T14:53:49.701Z,10.93
2022-11-25T14:56:31.301Z,10.88
2022-11-25T14:59:00.626Z,11.30
2022-11-25T15:01:34.814Z,11.15
2022-11-25T15:04:15.713Z,11.77
2022-11-25T15:06:51.260Z,11.45
2022-11-25T15:09:24.232Z,10.88
2022-11-25T15:11:57.894Z,12.20
2022-11-25T15:14:29.517Z,11.43
2022-11-25T15:16:58.844Z,12.23
2022-11-25T15:19:34.186Z,12.30
2022-11-25T15:22:22.388Z,13.10
2022-11-25T15:24:55.785Z,11.52
2022-11-25T15:27:27.626Z,12.97
2022-11-25T15:29:57.625Z,12.73
2022-11-25T15:32:27.480Z,13.35
2022-11-25T15:34:58.430Z,13.07
2022-11-25T15:37:27.632Z,13.02
2022-11-25T15:40:31.385Z,12.40
2022-11-25T15:43:02.389Z,13.40
2022-11-25T15:45:46.576Z,14.10
2022-11-25T15:48:38.643Z,13.38
2022-11-25T15:51:53.114Z,14.55
2022-11-25T15:57:11.837Z,13.38
2022-11-25T16:00:04.802Z,14.13
2022-11-25T16:02:43.948Z,13.68
2022-11-25T16:05:17.085Z,14.55
2022-11-25T16:07:54.601Z,14.57
2022-11-25T16:10:50.102Z,13.90
2022-11-25T16:13:30.632Z,14.80
2022-11-25T16:16:07.512Z,14.15
2022-11-25T16:18:41.791Z,14.98
2022-11-25T16:21:15.591Z,14.43
2022-11-25T16:23:59.590Z,14.68
2022-11-25T16:27:00.835Z,15.82
2022-11-25T16:29:47.438Z,16.10
2022-11-25T16:32:18.280Z,15.73
2022-11-25T16:34:46.867Z,15.63
2022-11-25T16:37:15.698Z,16.00
2022-11-25T16:39:43.911Z,16.80
2022-11-25T16:42:22.548Z,15.50
2022-11-25T16:44:52.343Z,16.35
2022-11-25T16:47:22.557Z,16.60
2022-11-25T16:49:50.769Z,18.85
2022-11-25T16:52:19.046Z,17.50
2022-11-25T16:54:48.590Z,17.38
2022-11-25T16:57:21.987Z,17.83
2022-11-25T16:59:57.265Z,17.45
2022-11-25T17:02:27.266Z,16.33
2022-11-25T17:04:59.940Z,18.80
2022-11-25T17:07:33.103Z,19.40
2022-11-25T17:10:02.533Z,19.65
2022-11-25T17:12:33.923Z,21.25
2022-11-25T17:15:05.636Z,19.05
2022-11-25T17:17:34.905Z,19.30
2022-11-25T17:20:03.735Z,18.65
2022-11-25T17:22:37.780Z,20.50
2022-11-25T17:25:08.468Z,18.58
2022-11-25T17:27:40.782Z,19.30
2022-11-25T17:30:18.861Z,20.13
2022-11-25T17:32:47.993Z,20.77
2022-11-25T17:35:21.834Z,20.27
2022-11-25T17:37:50.219Z,19.48
2022-11-25T17:40:18.611Z,21.25
2022-11-25T17:42:49.872Z,20.85
2022-11-25T17:45:20.909Z,20.42
2022-11-25T17:47:49.190Z,19.95
2022-11-25T17:50:23.293Z,19.17
2022-11-25T17:52:52.089Z,19.77
2022-11-25T17:55:22.848Z,19.63
2022-11-25T17:57:51.258Z,22.30
2022-11-25T18:00:22.319Z,20.02
2022-11-25T18:02:51.142Z,21.08
2022-11-25T18:05:22.390Z,21.55
2022-11-25T18:07:51.293Z,21.48
2022-11-25T18:10:24.431Z,20.70
2022-11-25T18:12:57.055Z,20.77
2022-11-25T18:15:28.545Z,21.38
2022-11-25T18:18:06.938Z,22.35
2022-11-25T18:20:35.235Z,21.02
2022-11-25T18:23:03.716Z,22.60
2022-11-25T18:25:33.987Z,26.17
2022-11-25T18:28:04.134Z,26.90
2022-11-25T18:30:35.373Z,25.83
2022-11-25T18:33:06.206Z,25.58
2022-11-25T18:35:36.813Z,25.00
2022-11-25T18:38:06.345Z,24.90
2022-11-25T18:40:36.887Z,24.63
2022-11-25T18:43:06.315Z,24.50
2022-11-25T18:45:39.442Z,23.65
2022-11-25T18:48:27.195Z,23.10
2022-11-25T18:50:57.418Z,24.52
2022-11-25T18:53:25.723Z,24.48
2022-11-25T18:55:54.306Z,23.60
2022-11-25T18:58:27.166Z,24.58
2022-11-25T19:01:02.187Z,24.17
2022-11-25T19:03:30.465Z,23.25
2022-11-25T19:06:00.802Z,24.25
2022-11-25T19:08:29.857Z,23.17
2022-11-25T19:10:58.267Z,22.75
2022-11-25T19:13:33.286Z,23.63
2022-11-25T19:16:12.915Z,27.10
2022-11-25T19:18:46.438Z,26.67
2022-11-25T19:21:19.719Z,26.02
2022-11-25T19:26:27.878Z,26.10
2022-11-25T19:29:02.629Z,26.63
2022-11-25T19:31:33.145Z,24.77
2022-11-25T19:34:02.707Z,26.58
2022-11-25T19:36:31.830Z,25.45
2022-11-25T19:39:00.178Z,27.40
2022-11-25T19:41:28.509Z,25.02
2022-11-25T19:43:56.887Z,23.98
2022-11-25T19:46:46.210Z,26.00
2022-11-25T19:49:20.043Z,25.25
2022-11-25T19:51:48.999Z,25.85
2022-11-25T19:54:19.285Z,25.50
2022-11-25T19:56:47.564Z,26.02
2022-11-25T19:59:15.834Z,26.15
2022-11-25T20:01:45.456Z,29.25
2022-11-25T20:04:22.170Z,30.10
2022-11-25T20:06:50.766Z,30.25
2022-11-25T20:09:18.970Z,29.90
2022-11-25T20:11:47.535Z,30.95
2022-11-25T20:14:15.738Z,29.30
2022-11-25T20:16:44.040Z,29.92
2022-11-25T20:19:18.207Z,28.60
2022-11-25T20:21:46.938Z,31.42
2022-11-25T20:24:18.977Z,30.17
2022-11-25T20:26:48.665Z,31.02
2022-11-25T20:29:27.372Z,33.10
2022-11-25T20:31:59.151Z,33.30
2022-11-25T20:34:28.409Z,32.60
2022-11-25T20:36:56.790Z,34.35
2022-11-25T20:39:25.469Z,33.80
2022-11-25T20:41:53.872Z,33.47
2022-11-25T20:44:22.441Z,33.50
2022-11-25T20:46:50.642Z,34.55
2022-11-25T20:49:27.259Z,30.52
2022-11-25T20:51:57.418Z,29.33
2022-11-25T20:54:25.790Z,29.40
2022-11-25T20:56:59.712Z,28.45
2022-11-25T20:59:28.764Z,30.25
2022-11-25T21:01:57.273Z,30.65
2022-11-25T21:04:25.595Z,29.75
2022-11-25T21:06:54.335Z,29.02
2022-11-25T21:09:26.400Z,30.45
2022-11-25T21:11:54.783Z,27.90
2022-11-25T21:14:22.944Z,30.65
2022-11-25T21:16:51.148Z,33.05
2022-11-25T21:19:19.887Z,30.38
2022-11-25T21:21:50.629Z,29.38
2022-11-25T21:24:42.660Z,28.83
2022-11-25T21:27:19.941Z,29.67
2022-11-25T21:29:51.279Z,32.50
2022-11-25T21:32:27.765Z,30.95
2022-11-25T21:34:57.806Z,29.95
2022-11-25T21:37:32.281Z,34.55
2022-11-25T21:40:00.650Z,35.72
2022-11-25T21:42:31.549Z,35.75
2022-11-25T21:44:59.832Z,35.63
2022-11-25T21:47:30.385Z,35.85
2022-11-25T21:50:01.891Z,36.00
2022-11-25T21:52:30.129Z,34.30
2022-11-25T21:54:58.429Z,34.58
2022-11-25T21:57:29.000Z,32.10
2022-11-25T22:00:00.065Z,30.95
2022-11-25T22:02:28.330Z,32.15
2022-11-25T22:04:58.449Z,32.10
2022-11-25T22:07:30.751Z,30.02
2022-11-25T22:09:59.325Z,32.42
2022-11-25T22:12:30.552Z,30.58
2022-11-25T22:14:59.506Z,32.95
2022-11-25T22:17:29.941Z,33.15
2022-11-25T22:19:58.758Z,33.22
2022-11-25T22:22:27.197Z,30.25
2022-11-25T22:24:55.381Z,31.35
2022-11-25T22:27:25.957Z,30.98
2022-11-25T22:29:55.591Z,30.38
2022-11-25T22:32:25.375Z,32.15
2022-11-25T22:34:53.555Z,29.52
2022-11-25T22:37:24.692Z,29.67
2022-11-25T22:39:53.402Z,30.67
2022-11-25T22:42:28.289Z,29.88
2022-11-25T22:44:57.865Z,30.42
2022-11-25T22:47:32.651Z,28.17
2022-11-25T22:50:04.168Z,29.27
2022-11-25T22:52:35.404Z,29.48
2022-11-25T22:55:25.821Z,28.85
2022-11-25T22:57:56.847Z,31.23
2022-11-25T23:00:28.290Z,28.75
2022-11-25T23:02:59.212Z,27.27
2022-11-25T23:05:39.639Z,27.00
2022-11-25T23:08:24.370Z,28.98
2022-11-25T23:10:53.063Z,27.75
2022-11-25T23:13:23.546Z,27.52
2022-11-25T23:15:55.228Z,28.58
2022-11-25T23:18:35.291Z,26.02
2022-11-25T23:21:19.473Z,27.37
2022-11-25T23:23:47.734Z,28.60
2022-11-25T23:26:16.304Z,27.20
2022-11-25T23:28:44.519Z,26.75
2022-11-25T23:31:14.512Z,26.38
2022-11-25T23:33:46.034Z,26.40
2022-11-25T23:36:27.211Z,24.80
2022-11-25T23:38:58.221Z,26.50
2022-11-25T23:41:32.593Z,24.88
2022-11-25T23:44:15.099Z,24.77
2022-11-25T23:46:44.331Z,26.10
2022-11-25T23:49:21.607Z,25.90
2022-11-25T23:51:50.337Z,25.02
2022-11-25T23:54:21.728Z,26.13
2022-11-25T23:56:50.012Z,25.80
2022-11-25T23:59:18.525Z,24.92
